Terminal Aerodrome Forecast
Issued by NWS Sterling, VA

Home | Current Version | Previous Version | Text Only | Print | Product List | Glossary On
Versions: 1 2 3 4 5 6 7 8 9 10 11 12 13 14 15 16 17 18 19 20 21 22 23
000
FTUS41 KLWX 041356 AAA
TAFMRB
TAF AMD
KMRB 041356Z 0414/0512 12004KT 3SM -SHRA BR OVC015
     FM041600 05004KT 4SM -SHRA BR VCTS OVC025CB
     FM041900 VRB03KT 6SM BR VCTS OVC035CB
     FM042200 00000KT P6SM BKN070
     FM050700 00000KT 3SM BR BKN200
     FM051000 00000KT 1 1/2SM BR BKN200=

USA.gov is the U.S. government's official web portal to all federal, state and local government web resources and services.